TimeCDT,TemperatureF,Dew PointF,Humidity,Sea Level PressureIn,VisibilityMPH,Wind Direction,Wind SpeedMPH,Gust SpeedMPH,PrecipitationIn,Events,Conditions,WindDirDegrees,DateUTC
12:15 AM,59.0,53.6,82,29.78,7.0,NW,4.6,-,0.03,,Mostly Cloudy,320,2013-03-10 06:15:00
12:35 AM,59.0,55.4,88,29.75,10.0,NE,4.6,-,0.03,,Overcast,40,2013-03-10 06:35:00
12:55 AM,57.2,55.4,94,29.75,10.0,ENE,4.6,-,0.03,,Overcast,60,2013-03-10 06:55:00
1:15 AM,57.2,55.4,94,29.75,10.0,Calm,Calm,-,N/A,,Mostly Cloudy,0,2013-03-10 07:15:00
1:35 AM,57.2,55.4,94,29.75,7.0,East,4.6,-,0.01,,Mostly Cloudy,90,2013-03-10 07:35:00
1:55 AM,57.2,55.4,94,29.74,10.0,Calm,Calm,-,0.01,,Mostly Cloudy,0,2013-03-10 07:55:00
3:15 AM,57.2,55.4,94,29.73,7.0,NNE,3.5,-,0.01,,Overcast,30,2013-03-10 08:15:00
3:35 AM,57.2,55.4,94,29.72,5.0,NW,6.9,-,0.01,,Overcast,320,2013-03-10 08:35:00
3:55 AM,55.4,53.6,94,29.75,1.0,WNW,11.5,21.9,0.28,,Overcast,300,2013-03-10 08:55:00
4:15 AM,53.6,51.8,94,29.74,2.0,NW,11.5,-,0.08,,Overcast,320,2013-03-10 09:15:00
4:35 AM,53.6,50.0,88,29.74,2.5,NW,8.1,-,0.20,,Overcast,320,2013-03-10 09:35:00
4:55 AM,53.6,51.8,94,29.75,2.5,NW,9.2,-,0.28,,Overcast,320,2013-03-10 09:55:00
5:15 AM,51.8,50.0,94,29.74,3.0,NNW,12.7,-,0.04,,Overcast,330,2013-03-10 10:15:00
5:35 AM,51.8,50.0,94,29.73,4.0,NNW,10.4,-,0.06,,Overcast,330,2013-03-10 10:35:00
5:55 AM,51.8,50.0,94,29.74,5.0,NW,6.9,-,0.08,,Overcast,310,2013-03-10 10:55:00
6:15 AM,51.8,50.0,94,29.75,3.0,NW,6.9,-,0.02,,Overcast,320,2013-03-10 11:15:00
7:35 AM,51.8,50.0,94,29.78,10.0,WNW,5.8,-,0.04,,Mostly Cloudy,300,2013-03-10 12:35:00
7:55 AM,51.8,50.0,94,29.76,7.0,NNE,4.6,-,0.04,,Scattered Clouds,20,2013-03-10 12:55:00
8:15 AM,51.8,50.0,94,29.78,7.0,Calm,Calm,-,0.01,,Scattered Clouds,0,2013-03-10 13:15:00
8:35 AM,51.8,50.0,94,29.78,7.0,SE,4.6,-,0.03,,Scattered Clouds,140,2013-03-10 13:35:00
8:55 AM,51.8,50.0,94,29.76,7.0,East,3.5,-,0.04,,Scattered Clouds,100,2013-03-10 13:55:00
9:15 AM,51.8,50.0,94,29.77,10.0,ESE,6.9,-,N/A,,Scattered Clouds,120,2013-03-10 14:15:00
9:35 AM,51.8,50.0,94,29.75,10.0,SE,10.4,-,N/A,,Clear,130,2013-03-10 14:35:00
9:55 AM,51.8,50.0,94,29.76,10.0,ESE,6.9,-,N/A,,Clear,120,2013-03-10 14:55:00
10:15 AM,51.8,50.0,94,29.77,10.0,SSE,4.6,-,N/A,,Scattered Clouds,160,2013-03-10 15:15:00
10:35 AM,51.8,50.0,94,29.76,10.0,SSW,6.9,-,N/A,,Mostly Cloudy,200,2013-03-10 15:35:00
10:55 AM,51.8,46.4,82,29.81,10.0,West,17.3,25.3,N/A,,Overcast,270,2013-03-10 15:55:00
11:15 AM,50.0,42.8,76,29.81,10.0,West,12.7,18.4,N/A,,Overcast,270,2013-03-10 16:15:00
11:35 AM,50.0,41.0,71,29.82,10.0,West,15.0,-,N/A,,Mostly Cloudy,270,2013-03-10 16:35:00
11:55 AM,50.0,41.0,71,29.84,10.0,West,13.8,24.2,N/A,,Mostly Cloudy,280,2013-03-10 16:55:00
12:15 PM,51.8,41.0,67,29.85,10.0,West,16.1,23.0,N/A,,Scattered Clouds,270,2013-03-10 17:15:00
12:35 PM,53.6,39.2,58,29.85,10.0,West,15.0,21.9,N/A,,Clear,270,2013-03-10 17:35:00
12:55 PM,53.6,37.4,54,29.86,10.0,West,15.0,25.3,N/A,,Scattered Clouds,280,2013-03-10 17:55:00
1:15 PM,53.6,37.4,54,29.86,10.0,West,15.0,23.0,N/A,,Mostly Cloudy,270,2013-03-10 18:15:00
1:35 PM,53.6,37.4,54,29.86,10.0,West,18.4,27.6,N/A,,Scattered Clouds,270,2013-03-10 18:35:00
1:55 PM,55.4,37.4,51,29.86,10.0,West,16.1,23.0,N/A,,Mostly Cloudy,270,2013-03-10 18:55:00
2:15 PM,53.6,37.4,54,29.86,10.0,West,19.6,25.3,N/A,,Scattered Clouds,270,2013-03-10 19:15:00
2:35 PM,53.6,35.6,51,29.86,10.0,West,19.6,25.3,N/A,,Mostly Cloudy,270,2013-03-10 19:35:00
2:55 PM,53.6,35.6,51,29.87,10.0,West,19.6,23.0,N/A,,Mostly Cloudy,280,2013-03-10 19:55:00
3:15 PM,51.8,37.4,58,29.89,10.0,West,19.6,26.5,N/A,,Mostly Cloudy,280,2013-03-10 20:15:00
3:35 PM,50.0,37.4,62,29.89,10.0,West,15.0,20.7,N/A,,Mostly Cloudy,280,2013-03-10 20:35:00
3:55 PM,51.8,37.4,58,29.90,10.0,West,19.6,28.8,N/A,,Mostly Cloudy,270,2013-03-10 20:55:00
4:15 PM,50.0,35.6,58,29.91,10.0,WNW,18.4,25.3,N/A,,Mostly Cloudy,300,2013-03-10 21:15:00
4:35 PM,48.2,35.6,62,29.92,10.0,WNW,15.0,21.9,N/A,,Mostly Cloudy,290,2013-03-10 21:35:00
4:55 PM,48.2,35.6,62,29.92,10.0,WNW,17.3,23.0,N/A,,Overcast,290,2013-03-10 21:55:00
5:15 PM,46.4,33.8,62,29.92,10.0,West,13.8,20.7,N/A,,Overcast,280,2013-03-10 22:15:00
5:35 PM,46.4,33.8,62,29.93,10.0,WNW,15.0,21.9,N/A,,Overcast,300,2013-03-10 22:35:00
5:55 PM,44.6,33.8,66,29.94,10.0,WNW,10.4,-,N/A,,Overcast,290,2013-03-10 22:55:00
6:15 PM,44.6,33.8,66,29.94,10.0,WNW,16.1,21.9,N/A,,Overcast,300,2013-03-10 23:15:00
6:35 PM,44.6,33.8,66,29.94,10.0,WNW,11.5,-,N/A,,Overcast,300,2013-03-10 23:35:00
6:55 PM,44.6,32.0,61,29.95,10.0,NW,11.5,18.4,N/A,,Overcast,310,2013-03-10 23:55:00
7:15 PM,44.6,32.0,61,29.96,10.0,NW,13.8,20.7,N/A,,Overcast,310,2013-03-11 00:15:00
7:35 PM,42.8,32.0,66,29.96,10.0,WNW,8.1,-,N/A,,Overcast,300,2013-03-11 00:35:00
7:55 PM,42.8,32.0,66,29.97,10.0,WNW,13.8,21.9,N/A,,Overcast,300,2013-03-11 00:55:00
8:15 PM,42.8,32.0,66,29.98,10.0,WNW,13.8,20.7,N/A,,Overcast,300,2013-03-11 01:15:00
8:35 PM,42.8,32.0,66,29.99,10.0,NW,11.5,-,N/A,,Overcast,310,2013-03-11 01:35:00
8:55 PM,42.8,32.0,66,29.99,10.0,NW,18.4,23.0,N/A,,Overcast,310,2013-03-11 01:55:00
9:15 PM,42.8,32.0,66,30.00,10.0,WNW,15.0,19.6,N/A,,Overcast,290,2013-03-11 02:15:00
9:35 PM,41.0,30.2,65,30.01,10.0,WNW,13.8,23.0,N/A,,Overcast,300,2013-03-11 02:35:00
10:15 PM,41.0,30.2,65,30.02,10.0,WNW,11.5,19.6,N/A,,Overcast,300,2013-03-11 03:15:00
10:55 PM,41.0,30.2,65,30.03,10.0,NW,13.8,23.0,N/A,,Overcast,310,2013-03-11 03:55:00
11:15 PM,41.0,28.4,61,30.03,10.0,NW,19.6,26.5,N/A,,Overcast,310,2013-03-11 04:15:00
11:35 PM,41.0,28.4,61,30.03,10.0,NW,10.4,18.4,N/A,,Overcast,310,2013-03-11 04:35:00
11:55 PM,39.2,28.4,65,30.03,10.0,NW,12.7,20.7,N/A,,Overcast,320,2013-03-11 04:55:00
12:15 AM,39.2,28.4,65,30.02,10.0,NW,17.3,24.2,N/A,,Overcast,320,2013-03-11 05:15:00
12:35 AM,37.4,28.4,70,30.02,10.0,NW,17.3,26.5,N/A,,Overcast,310,2013-03-11 05:35:00
12:55 AM,37.4,28.4,70,30.01,10.0,NW,13.8,23.0,N/A,,Overcast,310,2013-03-11 05:55:00